sensor_id;sensor_type;location;lat;lon;timestamp;pressure;altitude;pressure_sealevel;temperature;humidity
48824;BME280;34640;53.590;10.054;2022-07-12T00:00:32;101941.19;;;15.37;100.00
48824;BME280;34640;53.590;10.054;2022-07-12T00:03:05;101941.91;;;15.34;100.00
48824;BME280;34640;53.590;10.054;2022-07-12T00:05:39;101934.41;;;15.25;100.00
48824;BME280;34640;53.590;10.054;2022-07-12T00:08:12;101936.75;;;15.21;100.00
48824;BME280;34640;53.590;10.054;2022-07-12T00:10:47;101929.41;;;15.15;100.00
48824;BME280;34640;53.590;10.054;2022-07-12T00:13:20;101931.03;;;15.13;100.00
48824;BME280;34640;53.590;10.054;2022-07-12T00:15:53;101930.75;;;15.09;100.00
48824;BME280;34640;53.590;10.054;2022-07-12T00:18:26;101935.19;;;15.10;100.00
48824;BME280;34640;53.590;10.054;2022-07-12T00:20:59;101929.84;;;15.08;100.00
48824;BME280;34640;53.590;10.054;2022-07-12T00:23:33;101926.06;;;15.03;100.00
48824;BME280;34640;53.590;10.054;2022-07-12T00:26:08;101925.16;;;15.03;100.00
48824;BME280;34640;53.590;10.054;2022-07-12T00:28:41;101918.91;;;15.01;100.00
48824;BME280;34640;53.590;10.054;2022-07-12T00:31:14;101917.38;;;15.04;100.00
48824;BME280;34640;53.590;10.054;2022-07-12T00:33:47;101912.75;;;15.00;100.00
48824;BME280;34640;53.590;10.054;2022-07-12T00:36:20;101911.56;;;14.95;100.00
48824;BME280;34640;53.590;10.054;2022-07-12T00:38:54;101902.78;;;14.94;100.00
48824;BME280;34640;53.590;10.054;2022-07-12T00:41:30;101896.53;;;14.92;100.00
48824;BME280;34640;53.590;10.054;2022-07-12T00:44:03;101897.25;;;14.90;100.00
48824;BME280;34640;53.590;10.054;2022-07-12T00:46:36;101896.72;;;14.95;100.00
48824;BME280;34640;53.590;10.054;2022-07-12T00:49:10;101894.09;;;14.95;100.00
48824;BME280;34640;53.590;10.054;2022-07-12T00:51:47;101900.97;;;14.93;100.00
48824;BME280;34640;53.590;10.054;2022-07-12T00:54:20;101893.72;;;14.89;100.00
48824;BME280;34640;53.590;10.054;2022-07-12T00:56:54;101898.06;;;14.89;100.00
48824;BME280;34640;53.590;10.054;2022-07-12T00:59:27;101890.84;;;14.85;100.00
48824;BME280;34640;53.590;10.054;2022-07-12T01:02:01;101889.75;;;14.81;100.00
48824;BME280;34640;53.590;10.054;2022-07-12T01:04:35;101888.94;;;14.82;100.00
48824;BME280;34640;53.590;10.054;2022-07-12T01:07:12;101897.72;;;14.83;100.00
48824;BME280;34640;53.590;10.054;2022-07-12T01:09:45;101889.84;;;14.83;100.00
48824;BME280;34640;53.590;10.054;2022-07-12T01:12:21;101898.53;;;14.82;100.00
48824;BME280;34640;53.590;10.054;2022-07-12T01:14:55;101898.25;;;14.77;100.00
48824;BME280;34640;53.590;10.054;2022-07-12T01:17:28;101891.00;;;14.73;100.00
48824;BME280;34640;53.590;10.054;2022-07-12T01:20:04;101898.03;;;14.74;100.00
48824;BME280;34640;53.590;10.054;2022-07-12T01:22:40;101893.53;;;14.72;100.00
48824;BME280;34640;53.590;10.054;2022-07-12T01:25:15;101889.81;;;14.68;100.00
48824;BME280;34640;53.590;10.054;2022-07-12T01:27:48;101893.88;;;14.63;100.00
48824;BME280;34640;53.590;10.054;2022-07-12T01:30:22;101897.22;;;14.60;100.00
48824;BME280;34640;53.590;10.054;2022-07-12T01:32:55;101897.03;;;14.57;100.00
48824;BME280;34640;53.590;10.054;2022-07-12T01:35:30;101896.84;;;14.54;100.00
48824;BME280;34640;53.590;10.054;2022-07-12T01:38:04;101893.81;;;14.48;100.00
48824;BME280;34640;53.590;10.054;2022-07-12T01:40:39;101889.00;;;14.41;100.00
48824;BME280;34640;53.590;10.054;2022-07-12T01:43:12;101883.97;;;14.44;100.00
48824;BME280;34640;53.590;10.054;2022-07-12T01:45:46;101878.91;;;14.47;100.00
48824;BME280;34640;53.590;10.054;2022-07-12T01:48:19;101879.81;;;14.48;100.00
48824;BME280;34640;53.590;10.054;2022-07-12T01:50:52;101879.72;;;14.46;100.00
48824;BME280;34640;53.590;10.054;2022-07-12T01:53:26;101877.69;;;14.42;100.00
48824;BME280;34640;53.590;10.054;2022-07-12T01:56:01;101882.66;;;14.37;100.00
48824;BME280;34640;53.590;10.054;2022-07-12T01:58:34;101881.75;;;14.37;100.00
48824;BME280;34640;53.590;10.054;2022-07-12T02:01:10;101883.28;;;14.33;100.00
48824;BME280;34640;53.590;10.054;2022-07-12T02:03:44;101886.50;;;14.29;100.00
48824;BME280;34640;53.590;10.054;2022-07-12T02:06:17;101887.13;;;14.25;100.00
48824;BME280;34640;53.590;10.054;2022-07-12T02:08:50;101894.69;;;14.21;100.00
48824;BME280;34640;53.590;10.054;2022-07-12T02:11:24;101883.13;;;14.17;100.00
48824;BME280;34640;53.590;10.054;2022-07-12T02:13:57;101881.13;;;14.13;100.00
48824;BME280;34640;53.590;10.054;2022-07-12T02:16:31;101889.78;;;14.12;100.00
48824;BME280;34640;53.590;10.054;2022-07-12T02:19:04;101890.59;;;14.11;100.00
48824;BME280;34640;53.590;10.054;2022-07-12T02:21:38;101906.31;;;14.11;100.00
48824;BME280;34640;53.590;10.054;2022-07-12T02:24:11;101901.88;;;14.10;100.00
48824;BME280;34640;53.590;10.054;2022-07-12T02:26:45;101906.31;;;14.11;100.00
48824;BME280;34640;53.590;10.054;2022-07-12T02:29:19;101907.00;;;14.08;100.00
48824;BME280;34640;53.590;10.054;2022-07-12T02:31:52;101902.56;;;14.07;100.00
48824;BME280;34640;53.590;10.054;2022-07-12T02:34:25;101908.72;;;14.08;100.00
48824;BME280;34640;53.590;10.054;2022-07-12T02:36:58;101907.13;;;14.10;100.00
48824;BME280;34640;53.590;10.054;2022-07-12T02:39:31;101911.34;;;14.08;100.00
48824;BME280;34640;53.590;10.054;2022-07-12T02:42:05;101906.00;;;14.06;100.00
48824;BME280;34640;53.590;10.054;2022-07-12T02:44:38;101920.53;;;14.01;100.00
48824;BME280;34640;53.590;10.054;2022-07-12T02:47:11;101921.53;;;14.03;100.00
48824;BME280;34640;53.590;10.054;2022-07-12T02:49:44;101930.38;;;14.05;100.00
48824;BME280;34640;53.590;10.054;2022-07-12T02:52:17;101935.44;;;14.02;100.00
48824;BME280;34640;53.590;10.054;2022-07-12T02:54:50;101938.84;;;14.01;100.00
48824;BME280;34640;53.590;10.054;2022-07-12T02:57:25;101941.47;;;14.01;100.00
48824;BME280;34640;53.590;10.054;2022-07-12T02:59:58;101947.44;;;13.99;100.00
48824;BME280;34640;53.590;10.054;2022-07-12T03:02:31;101948.03;;;13.95;100.00
48824;BME280;34640;53.590;10.054;2022-07-12T03:05:05;101955.09;;;13.96;100.00
48824;BME280;34640;53.590;10.054;2022-07-12T03:07:38;101952.19;;;13.91;100.00
48824;BME280;34640;53.590;10.054;2022-07-12T03:10:11;101958.31;;;13.92;100.00
48824;BME280;34640;53.590;10.054;2022-07-12T03:12:46;101968.91;;;13.93;100.00
48824;BME280;34640;53.590;10.054;2022-07-12T03:15:19;101971.72;;;13.96;100.00
48824;BME280;34640;53.590;10.054;2022-07-12T03:17:52;101978.66;;;13.96;100.00
48824;BME280;34640;53.590;10.054;2022-07-12T03:20:25;101977.84;;;13.97;100.00
48824;BME280;34640;53.590;10.054;2022-07-12T03:22:59;101980.56;;;13.98;100.00
48824;BME280;34640;53.590;10.054;2022-07-12T03:25:31;101980.47;;;13.97;100.00
48824;BME280;34640;53.590;10.054;2022-07-12T03:28:06;101980.47;;;13.97;100.00
48824;BME280;34640;53.590;10.054;2022-07-12T03:30:39;101986.63;;;13.97;100.00
48824;BME280;34640;53.590;10.054;2022-07-12T03:33:13;101976.25;;;13.99;100.00
48824;BME280;34640;53.590;10.054;2022-07-12T03:35:48;101990.13;;;13.98;100.00
48824;BME280;34640;53.590;10.054;2022-07-12T03:38:21;101986.63;;;13.97;100.00
48824;BME280;34640;53.590;10.054;2022-07-12T03:40:54;101990.44;;;14.02;100.00
48824;BME280;34640;53.590;10.054;2022-07-12T03:43:28;101995.38;;;14.11;100.00
48824;BME280;34640;53.590;10.054;2022-07-12T03:46:01;101989.72;;;14.18;100.00
48824;BME280;34640;53.590;10.054;2022-07-12T03:48:35;101995.50;;;14.13;100.00
48824;BME280;34640;53.590;10.054;2022-07-12T03:51:07;101991.25;;;14.15;100.00
48824;BME280;34640;53.590;10.054;2022-07-12T03:53:40;101999.00;;;14.13;100.00
48824;BME280;34640;53.590;10.054;2022-07-12T03:56:13;101995.78;;;14.17;100.00
48824;BME280;34640;53.590;10.054;2022-07-12T03:59:08;101995.06;;;14.20;100.00
48824;BME280;34640;53.590;10.054;2022-07-12T04:01:41;101999.69;;;14.24;100.00
48824;BME280;34640;53.590;10.054;2022-07-12T04:04:15;101995.66;;;14.29;100.00
48824;BME280;34640;53.590;10.054;2022-07-12T04:06:48;101998.25;;;14.29;100.00
48824;BME280;34640;53.590;10.054;2022-07-12T04:09:21;101996.47;;;14.28;100.00
48824;BME280;34640;53.590;10.054;2022-07-12T04:11:54;101996.66;;;14.31;100.00
48824;BME280;34640;53.590;10.054;2022-07-12T04:14:28;102003.94;;;14.35;100.00
48824;BME280;34640;53.590;10.054;2022-07-12T04:17:02;102001.41;;;14.36;100.00
48824;BME280;34640;53.590;10.054;2022-07-12T04:19:36;101992.81;;;14.39;100.00
48824;BME280;34640;53.590;10.054;2022-07-12T04:22:09;101999.16;;;14.43;100.00
48824;BME280;34640;53.590;10.054;2022-07-12T04:24:42;101993.53;;;14.50;100.00
48824;BME280;34640;53.590;10.054;2022-07-12T04:27:15;101990.31;;;14.54;100.00
48824;BME280;34640;53.590;10.054;2022-07-12T04:29:50;101990.50;;;14.57;100.00
48824;BME280;34640;53.590;10.054;2022-07-12T04:32:22;101986.44;;;14.62;100.00
48824;BME280;34640;53.590;10.054;2022-07-12T04:34:56;101989.34;;;14.66;100.00
48824;BME280;34640;53.590;10.054;2022-07-12T04:37:29;101986.81;;;14.68;100.00
48824;BME280;34640;53.590;10.054;2022-07-12T04:40:02;101993.06;;;14.70;100.00
48824;BME280;34640;53.590;10.054;2022-07-12T04:42:35;101988.44;;;14.79;100.00
48824;BME280;34640;53.590;10.054;2022-07-12T04:45:10;101998.03;;;14.93;100.00
48824;BME280;34640;53.590;10.054;2022-07-12T04:47:43;101990.38;;;15.11;100.00
48824;BME280;34640;53.590;10.054;2022-07-12T04:50:16;101988.63;;;15.25;100.00
48824;BME280;34640;53.590;10.054;2022-07-12T04:52:52;101990.16;;;15.36;100.00
48824;BME280;34640;53.590;10.054;2022-07-12T04:55:26;101989.09;;;15.47;100.00
48824;BME280;34640;53.590;10.054;2022-07-12T04:57:59;101982.03;;;15.61;100.00
48824;BME280;34640;53.590;10.054;2022-07-12T05:00:33;101991.22;;;15.68;100.00
48824;BME280;34640;53.590;10.054;2022-07-12T05:03:06;101991.47;;;15.72;100.00
48824;BME280;34640;53.590;10.054;2022-07-12T05:05:40;101991.56;;;15.74;100.00
48824;BME280;34640;53.590;10.054;2022-07-12T05:08:13;102000.91;;;15.83;100.00
48824;BME280;34640;53.590;10.054;2022-07-12T05:10:46;102002.41;;;15.95;100.00
48824;BME280;34640;53.590;10.054;2022-07-12T05:13:19;102005.47;;;16.02;100.00
48824;BME280;34640;53.590;10.054;2022-07-12T05:15:54;102010.06;;;16.21;100.00
48824;BME280;34640;53.590;10.054;2022-07-12T05:18:27;102011.50;;;16.31;100.00
48824;BME280;34640;53.590;10.054;2022-07-12T05:21:01;102019.41;;;16.47;100.00
48824;BME280;34640;53.590;10.054;2022-07-12T05:23:35;102024.78;;;16.65;100.00
48824;BME280;34640;53.590;10.054;2022-07-12T05:26:08;102026.19;;;16.73;100.00
48824;BME280;34640;53.590;10.054;2022-07-12T05:28:47;102029.63;;;16.72;100.00
48824;BME280;34640;53.590;10.054;2022-07-12T05:31:21;102026.72;;;16.67;100.00
48824;BME280;34640;53.590;10.054;2022-07-12T05:33:55;102023.28;;;16.68;100.00
48824;BME280;34640;53.590;10.054;2022-07-12T05:36:28;102029.06;;;16.63;100.00
48824;BME280;34640;53.590;10.054;2022-07-12T05:39:03;102030.78;;;16.77;100.00
48824;BME280;34640;53.590;10.054;2022-07-12T05:41:36;102027.09;;;16.73;100.00
48824;BME280;34640;53.590;10.054;2022-07-12T05:44:09;102033.00;;;16.86;100.00
48824;BME280;34640;53.590;10.054;2022-07-12T05:46:44;102034.34;;;16.94;100.00
48824;BME280;34640;53.590;10.054;2022-07-12T05:49:22;102037.47;;;17.03;100.00
48824;BME280;34640;53.590;10.054;2022-07-12T05:51:55;102034.09;;;17.05;100.00
48824;BME280;34640;53.590;10.054;2022-07-12T05:54:46;102036.22;;;17.13;100.00
48824;BME280;34640;53.590;10.054;2022-07-12T05:57:19;102028.00;;;17.23;100.00
48824;BME280;34640;53.590;10.054;2022-07-12T05:59:52;102025.22;;;17.20;100.00
48824;BME280;34640;53.590;10.054;2022-07-12T06:02:26;102026.19;;;17.22;100.00
48824;BME280;34640;53.590;10.054;2022-07-12T06:05:00;102022.97;;;17.27;100.00
48824;BME280;34640;53.590;10.054;2022-07-12T06:07:33;102024.94;;;17.31;100.00
48824;BME280;34640;53.590;10.054;2022-07-12T06:10:07;102027.00;;;17.37;100.00
48824;BME280;34640;53.590;10.054;2022-07-12T06:12:40;102022.13;;;17.45;99.48
48824;BME280;34640;53.590;10.054;2022-07-12T06:15:13;102025.28;;;17.37;99.98
48824;BME280;34640;53.590;10.054;2022-07-12T06:17:47;102028.22;;;17.44;100.00
48824;BME280;34640;53.590;10.054;2022-07-12T06:20:21;102035.19;;;17.59;99.40
48824;BME280;34640;53.590;10.054;2022-07-12T06:22:54;102034.94;;;17.71;97.80
48824;BME280;34640;53.590;10.054;2022-07-12T06:25:27;102038.16;;;17.82;96.57
48824;BME280;34640;53.590;10.054;2022-07-12T06:28:16;102034.28;;;17.75;95.73
48824;BME280;34640;53.590;10.054;2022-07-12T06:30:51;102040.53;;;17.77;95.70
48824;BME280;34640;53.590;10.054;2022-07-12T06:33:26;102040.84;;;17.83;95.43
48824;BME280;34640;53.590;10.054;2022-07-12T06:35:59;102028.97;;;17.91;94.59
48824;BME280;34640;53.590;10.054;2022-07-12T06:38:32;102034.94;;;18.05;94.06
48824;BME280;34640;53.590;10.054;2022-07-12T06:41:14;102038.41;;;18.04;93.60
48824;BME280;34640;53.590;10.054;2022-07-12T06:43:47;102044.09;;;18.13;92.50
48824;BME280;34640;53.590;10.054;2022-07-12T06:46:21;102036.06;;;18.10;91.90
48824;BME280;34640;53.590;10.054;2022-07-12T06:48:55;102039.66;;;18.12;92.33
48824;BME280;34640;53.590;10.054;2022-07-12T06:51:28;102034.19;;;18.25;91.28
48824;BME280;34640;53.590;10.054;2022-07-12T06:54:01;102027.00;;;18.41;91.05
48824;BME280;34640;53.590;10.054;2022-07-12T06:56:34;102026.69;;;18.52;89.62
48824;BME280;34640;53.590;10.054;2022-07-12T06:59:07;102033.84;;;18.55;89.08
48824;BME280;34640;53.590;10.054;2022-07-12T07:01:47;102035.13;;;18.63;88.58
48824;BME280;34640;53.590;10.054;2022-07-12T07:04:22;102031.75;;;18.66;88.80
48824;BME280;34640;53.590;10.054;2022-07-12T07:06:55;102034.13;;;18.61;89.02
48824;BME280;34640;53.590;10.054;2022-07-12T07:09:28;102028.44;;;18.70;88.75
48824;BME280;34640;53.590;10.054;2022-07-12T07:12:01;102034.31;;;18.64;89.55
48824;BME280;34640;53.590;10.054;2022-07-12T07:14:35;102031.41;;;18.77;87.64
48824;BME280;34640;53.590;10.054;2022-07-12T07:17:08;102037.81;;;18.82;87.62
48824;BME280;34640;53.590;10.054;2022-07-12T07:19:42;102034.28;;;19.01;86.51
48824;BME280;34640;53.590;10.054;2022-07-12T07:22:16;102028.75;;;19.14;85.86
48824;BME280;34640;53.590;10.054;2022-07-12T07:24:50;102019.34;;;19.21;84.84
48824;BME280;34640;53.590;10.054;2022-07-12T07:27:23;102016.31;;;19.31;83.61
48824;BME280;34640;53.590;10.054;2022-07-12T07:29:56;102018.78;;;19.28;84.21
48824;BME280;34640;53.590;10.054;2022-07-12T07:32:46;102019.91;;;19.33;83.04
48824;BME280;34640;53.590;10.054;2022-07-12T07:35:28;102013.84;;;19.36;81.98
48824;BME280;34640;53.590;10.054;2022-07-12T07:38:01;102012.25;;;19.39;81.76
48824;BME280;34640;53.590;10.054;2022-07-12T07:40:34;102025.31;;;19.36;81.27
48824;BME280;34640;53.590;10.054;2022-07-12T07:43:08;102027.53;;;19.46;81.64
48824;BME280;34640;53.590;10.054;2022-07-12T07:45:42;102021.19;;;19.62;81.26
48824;BME280;34640;53.590;10.054;2022-07-12T07:48:15;102031.84;;;19.84;80.65
48824;BME280;34640;53.590;10.054;2022-07-12T07:50:58;102025.19;;;19.94;79.41
48824;BME280;34640;53.590;10.054;2022-07-12T07:53:32;102031.38;;;19.95;78.38
48824;BME280;34640;53.590;10.054;2022-07-12T07:56:05;102037.88;;;20.01;79.13
48824;BME280;34640;53.590;10.054;2022-07-12T07:58:38;102040.31;;;20.18;78.08
48824;BME280;34640;53.590;10.054;2022-07-12T08:01:11;102038.47;;;20.17;78.12
48824;BME280;34640;53.590;10.054;2022-07-12T08:03:44;102037.91;;;20.24;78.73
48824;BME280;34640;53.590;10.054;2022-07-12T08:06:18;102036.03;;;20.21;78.38
48824;BME280;34640;53.590;10.054;2022-07-12T08:08:52;102036.97;;;20.01;79.14
48824;BME280;34640;53.590;10.054;2022-07-12T08:11:53;102034.94;;;19.95;79.40
48824;BME280;34640;53.590;10.054;2022-07-12T08:14:26;102034.03;;;19.95;79.10
48824;BME280;34640;53.590;10.054;2022-07-12T08:16:59;102041.91;;;20.14;79.01
48824;BME280;34640;53.590;10.054;2022-07-12T08:19:32;102041.13;;;20.17;79.05
48824;BME280;34640;53.590;10.054;2022-07-12T08:22:05;102039.66;;;20.02;78.40
48824;BME280;34640;53.590;10.054;2022-07-12T08:24:39;102048.16;;;20.16;78.67
48824;BME280;34640;53.590;10.054;2022-07-12T08:27:13;102042.69;;;20.11;78.87
48824;BME280;34640;53.590;10.054;2022-07-12T08:29:46;102044.31;;;20.08;78.78
48824;BME280;34640;53.590;10.054;2022-07-12T08:32:19;102041.84;;;20.12;79.13
48824;BME280;34640;53.590;10.054;2022-07-12T08:34:52;102042.88;;;20.16;79.04
48824;BME280;34640;53.590;10.054;2022-07-12T08:37:25;102041.47;;;20.45;77.43
48824;BME280;34640;53.590;10.054;2022-07-12T08:39:58;102051.03;;;20.86;75.66
48824;BME280;34640;53.590;10.054;2022-07-12T08:42:33;102062.97;;;21.45;73.23
48824;BME280;34640;53.590;10.054;2022-07-12T08:45:07;102066.69;;;22.25;70.04
48824;BME280;34640;53.590;10.054;2022-07-12T08:47:41;102056.56;;;23.89;61.37
48824;BME280;34640;53.590;10.054;2022-07-12T08:50:16;102048.34;;;25.32;56.55
48824;BME280;34640;53.590;10.054;2022-07-12T08:52:53;102065.75;;;26.58;51.99
48824;BME280;34640;53.590;10.054;2022-07-12T08:55:28;102061.63;;;25.72;53.28
48824;BME280;34640;53.590;10.054;2022-07-12T08:58:04;102044.38;;;24.72;55.38
48824;BME280;34640;53.590;10.054;2022-07-12T09:00:39;102047.69;;;24.60;57.66
48824;BME280;34640;53.590;10.054;2022-07-12T09:03:20;102048.28;;;24.49;58.07
48824;BME280;34640;53.590;10.054;2022-07-12T09:05:55;102040.66;;;24.28;59.10
48824;BME280;34640;53.590;10.054;2022-07-12T09:08:29;102042.97;;;24.13;58.08
48824;BME280;34640;53.590;10.054;2022-07-12T09:11:04;102048.75;;;24.29;56.88
48824;BME280;34640;53.590;10.054;2022-07-12T09:13:52;102048.06;;;24.38;56.81
48824;BME280;34640;53.590;10.054;2022-07-12T09:16:26;102047.34;;;24.11;58.00
48824;BME280;34640;53.590;10.054;2022-07-12T09:19:12;102044.69;;;23.76;59.71
48824;BME280;34640;53.590;10.054;2022-07-12T09:21:47;102045.25;;;23.34;61.25
48824;BME280;34640;53.590;10.054;2022-07-12T09:24:24;102044.94;;;22.92;63.38
48824;BME280;34640;53.590;10.054;2022-07-12T09:27:01;102033.63;;;22.71;62.87
48824;BME280;34640;53.590;10.054;2022-07-12T09:29:47;102038.16;;;22.46;64.91
48824;BME280;34640;53.590;10.054;2022-07-12T09:32:27;102048.06;;;21.98;68.02
48824;BME280;34640;53.590;10.054;2022-07-12T09:35:17;102049.34;;;22.09;67.14
48824;BME280;34640;53.590;10.054;2022-07-12T09:38:08;102044.53;;;22.24;66.27
48824;BME280;34640;53.590;10.054;2022-07-12T09:40:42;102037.88;;;22.37;64.93
48824;BME280;34640;53.590;10.054;2022-07-12T09:43:16;102039.31;;;22.27;64.46
48824;BME280;34640;53.590;10.054;2022-07-12T09:45:51;102037.66;;;22.31;65.25
48824;BME280;34640;53.590;10.054;2022-07-12T09:48:25;102035.56;;;22.21;64.93
48824;BME280;34640;53.590;10.054;2022-07-12T09:51:02;102037.84;;;22.36;65.43
48824;BME280;34640;53.590;10.054;2022-07-12T09:53:38;102035.25;;;22.12;65.67
48824;BME280;34640;53.590;10.054;2022-07-12T09:56:16;102034.72;;;22.22;64.55
48824;BME280;34640;53.590;10.054;2022-07-12T09:58:52;102036.38;;;22.18;65.44
48824;BME280;34640;53.590;10.054;2022-07-12T10:01:30;102027.06;;;22.31;64.51
48824;BME280;34640;53.590;10.054;2022-07-12T10:04:03;102022.44;;;22.25;64.14
48824;BME280;34640;53.590;10.054;2022-07-12T10:06:38;102031.84;;;22.14;64.82
48824;BME280;34640;53.590;10.054;2022-07-12T10:09:12;102019.78;;;21.99;65.35
48824;BME280;34640;53.590;10.054;2022-07-12T10:12:00;102025.88;;;22.21;65.27
48824;BME280;34640;53.590;10.054;2022-07-12T10:14:43;102025.56;;;22.12;65.21
48824;BME280;34640;53.590;10.054;2022-07-12T10:17:23;102019.84;;;22.27;64.72
48824;BME280;34640;53.590;10.054;2022-07-12T10:20:15;102025.59;;;22.41;64.30
48824;BME280;34640;53.590;10.054;2022-07-12T10:22:50;102015.34;;;22.53;64.79
48824;BME280;34640;53.590;10.054;2022-07-12T10:25:28;102013.75;;;22.58;64.99
48824;BME280;34640;53.590;10.054;2022-07-12T10:28:03;102028.47;;;22.77;65.29
48824;BME280;34640;53.590;10.054;2022-07-12T10:30:42;102012.94;;;22.89;62.64
48824;BME280;34640;53.590;10.054;2022-07-12T10:33:18;102017.78;;;23.02;62.16
48824;BME280;34640;53.590;10.054;2022-07-12T10:35:59;102011.59;;;23.03;61.46
48824;BME280;34640;53.590;10.054;2022-07-12T10:38:33;102007.56;;;22.86;62.33
48824;BME280;34640;53.590;10.054;2022-07-12T10:41:19;102001.97;;;23.07;62.78
48824;BME280;34640;53.590;10.054;2022-07-12T10:44:03;102003.47;;;23.29;61.40
48824;BME280;34640;53.590;10.054;2022-07-12T10:46:57;102000.00;;;23.31;60.89
48824;BME280;34640;53.590;10.054;2022-07-12T10:49:34;102013.91;;;23.21;61.09
48824;BME280;34640;53.590;10.054;2022-07-12T10:52:22;102012.75;;;23.13;61.16
48824;BME280;34640;53.590;10.054;2022-07-12T10:55:17;102010.09;;;23.13;62.15
48824;BME280;34640;53.590;10.054;2022-07-12T10:57:51;102007.84;;;23.27;61.77
48824;BME280;34640;53.590;10.054;2022-07-12T11:00:26;101999.28;;;23.38;61.32
48824;BME280;34640;53.590;10.054;2022-07-12T11:03:01;101999.28;;;23.38;61.10
48824;BME280;34640;53.590;10.054;2022-07-12T11:05:37;101994.94;;;23.42;60.58
48824;BME280;34640;53.590;10.054;2022-07-12T11:08:14;102001.31;;;23.47;60.40
48824;BME280;34640;53.590;10.054;2022-07-12T11:10:54;101998.53;;;23.42;59.69
48824;BME280;34640;53.590;10.054;2022-07-12T11:13:27;101997.88;;;23.51;58.77
48824;BME280;34640;53.590;10.054;2022-07-12T11:16:01;101988.31;;;23.58;60.03
48824;BME280;34640;53.590;10.054;2022-07-12T11:18:37;101984.28;;;23.72;60.06
48824;BME280;34640;53.590;10.054;2022-07-12T11:21:11;101983.75;;;23.87;59.60
48824;BME280;34640;53.590;10.054;2022-07-12T11:23:45;101975.63;;;23.82;60.68
48824;BME280;34640;53.590;10.054;2022-07-12T11:26:18;101978.56;;;23.91;61.07
48824;BME280;34640;53.590;10.054;2022-07-12T11:28:57;101983.13;;;23.97;60.35
48824;BME280;34640;53.590;10.054;2022-07-12T11:31:30;101973.41;;;23.99;59.87
48824;BME280;34640;53.590;10.054;2022-07-12T11:34:03;101968.63;;;23.86;60.82
48824;BME280;34640;53.590;10.054;2022-07-12T11:36:38;101960.88;;;23.95;60.44
48824;BME280;34640;53.590;10.054;2022-07-12T11:39:11;101964.75;;;23.71;61.60
48824;BME280;34640;53.590;10.054;2022-07-12T11:41:54;101969.47;;;23.83;62.20
48824;BME280;34640;53.590;10.054;2022-07-12T11:44:41;101957.94;;;23.84;63.04
48824;BME280;34640;53.590;10.054;2022-07-12T11:47:16;101967.09;;;23.95;62.67
48824;BME280;34640;53.590;10.054;2022-07-12T11:49:51;101966.38;;;24.02;61.99
48824;BME280;34640;53.590;10.054;2022-07-12T11:52:25;101957.66;;;24.08;61.00
48824;BME280;34640;53.590;10.054;2022-07-12T11:54:59;101963.97;;;24.12;61.06
48824;BME280;34640;53.590;10.054;2022-07-12T11:57:39;101965.78;;;24.14;60.74
48824;BME280;34640;53.590;10.054;2022-07-12T12:00:14;101963.00;;;24.08;59.83
48824;BME280;34640;53.590;10.054;2022-07-12T12:02:51;101958.56;;;24.08;59.47
48824;BME280;34640;53.590;10.054;2022-07-12T12:05:25;101963.91;;;24.08;61.12
48824;BME280;34640;53.590;10.054;2022-07-12T12:08:00;101953.25;;;24.08;61.12
48824;BME280;34640;53.590;10.054;2022-07-12T12:10:33;101955.63;;;24.34;60.36
48824;BME280;34640;53.590;10.054;2022-07-12T12:13:13;101953.97;;;24.39;60.65
48824;BME280;34640;53.590;10.054;2022-07-12T12:15:51;101962.06;;;24.44;61.15
48824;BME280;34640;53.590;10.054;2022-07-12T12:18:28;101964.81;;;24.48;60.53
48824;BME280;34640;53.590;10.054;2022-07-12T12:21:03;101971.72;;;24.38;61.53
48824;BME280;34640;53.590;10.054;2022-07-12T12:23:40;101958.50;;;24.43;61.43
48824;BME280;34640;53.590;10.054;2022-07-12T12:26:15;101961.91;;;24.36;61.75
48824;BME280;34640;53.590;10.054;2022-07-12T12:28:50;101956.50;;;24.33;61.58
48824;BME280;34640;53.590;10.054;2022-07-12T12:31:24;101950.94;;;24.25;62.90
48824;BME280;34640;53.590;10.054;2022-07-12T12:33:57;101943.72;;;24.20;62.98
48824;BME280;34640;53.590;10.054;2022-07-12T12:36:36;101953.50;;;24.21;63.87
48824;BME280;34640;53.590;10.054;2022-07-12T12:39:10;101954.75;;;24.33;62.85
48824;BME280;34640;53.590;10.054;2022-07-12T12:41:44;101945.19;;;24.43;62.54
48824;BME280;34640;53.590;10.054;2022-07-12T12:44:16;101945.22;;;24.45;62.46
48824;BME280;34640;53.590;10.054;2022-07-12T12:46:51;101947.75;;;24.38;61.87
48824;BME280;34640;53.590;10.054;2022-07-12T12:49:43;101937.03;;;24.35;62.40
48824;BME280;34640;53.590;10.054;2022-07-12T12:52:19;101936.25;;;24.41;63.09
48824;BME280;34640;53.590;10.054;2022-07-12T12:55:08;101930.06;;;24.42;61.71
48824;BME280;34640;53.590;10.054;2022-07-12T12:57:42;101937.16;;;24.42;62.00
48824;BME280;34640;53.590;10.054;2022-07-12T13:00:15;101942.56;;;24.46;61.92
48824;BME280;34640;53.590;10.054;2022-07-12T13:02:48;101942.53;;;24.45;62.56
48824;BME280;34640;53.590;10.054;2022-07-12T13:05:22;101939.19;;;24.53;62.87
48824;BME280;34640;53.590;10.054;2022-07-12T13:07:55;101943.66;;;24.54;62.80
48824;BME280;34640;53.590;10.054;2022-07-12T13:10:30;101938.38;;;24.56;62.44
48824;BME280;34640;53.590;10.054;2022-07-12T13:13:05;101939.50;;;24.68;60.41
48824;BME280;34640;53.590;10.054;2022-07-12T13:15:38;101936.00;;;24.71;60.60